sensor_id;sensor_type;location;lat;lon;timestamp;temperature;humidity
65369;HTU21D;51970;53.484;49.488;2024-02-14T00:01:11;-14.03;75.68
65369;HTU21D;51970;53.484;49.488;2024-02-14T00:03:38;-14.04;76.37
65369;HTU21D;51970;53.484;49.488;2024-02-14T00:06:04;-14.11;75.39
65369;HTU21D;51970;53.484;49.488;2024-02-14T00:08:31;-13.96;76.24
65369;HTU21D;51970;53.484;49.488;2024-02-14T00:10:58;-14.00;76.07
65369;HTU21D;51970;53.484;49.488;2024-02-14T00:13:24;-14.11;75.59
65369;HTU21D;51970;53.484;49.488;2024-02-14T00:15:50;-14.11;74.76
65369;HTU21D;51970;53.484;49.488;2024-02-14T00:18:17;-14.14;74.11
65369;HTU21D;51970;53.484;49.488;2024-02-14T00:20:43;-14.27;74.06
65369;HTU21D;51970;53.484;49.488;2024-02-14T00:23:09;-14.32;73.95
65369;HTU21D;51970;53.484;49.488;2024-02-14T00:25:35;-14.47;73.45
65369;HTU21D;51970;53.484;49.488;2024-02-14T00:28:01;-14.72;73.69
65369;HTU21D;51970;53.484;49.488;2024-02-14T00:30:29;-14.57;74.15
65369;HTU21D;51970;53.484;49.488;2024-02-14T00:32:55;-14.86;73.82
65369;HTU21D;51970;53.484;49.488;2024-02-14T00:35:22;-14.80;75.00
65369;HTU21D;51970;53.484;49.488;2024-02-14T00:37:48;-14.75;75.99
65369;HTU21D;51970;53.484;49.488;2024-02-14T00:40:14;-14.70;75.68
65369;HTU21D;51970;53.484;49.488;2024-02-14T00:42:40;-14.66;75.90
65369;HTU21D;51970;53.484;49.488;2024-02-14T00:45:07;-14.47;76.17
65369;HTU21D;51970;53.484;49.488;2024-02-14T00:47:36;-14.46;76.15
65369;HTU21D;51970;53.484;49.488;2024-02-14T00:50:03;-14.27;76.79
65369;HTU21D;51970;53.484;49.488;2024-02-14T00:52:29;-14.29;76.59
65369;HTU21D;51970;53.484;49.488;2024-02-14T00:54:55;-14.22;77.33
65369;HTU21D;51970;53.484;49.488;2024-02-14T00:57:21;-14.18;77.44
65369;HTU21D;51970;53.484;49.488;2024-02-14T00:59:52;-14.17;77.60
65369;HTU21D;51970;53.484;49.488;2024-02-14T01:02:19;-14.08;77.24
65369;HTU21D;51970;53.484;49.488;2024-02-14T01:04:45;-14.05;77.36
65369;HTU21D;51970;53.484;49.488;2024-02-14T01:07:11;-14.06;77.21
65369;HTU21D;51970;53.484;49.488;2024-02-14T01:09:37;-14.08;77.28
65369;HTU21D;51970;53.484;49.488;2024-02-14T01:12:03;-14.12;77.40
65369;HTU21D;51970;53.484;49.488;2024-02-14T01:14:31;-14.07;77.36
65369;HTU21D;51970;53.484;49.488;2024-02-14T01:16:57;-14.05;77.28
65369;HTU21D;51970;53.484;49.488;2024-02-14T01:19:23;-14.18;77.14
65369;HTU21D;51970;53.484;49.488;2024-02-14T01:21:51;-14.20;77.25
65369;HTU21D;51970;53.484;49.488;2024-02-14T01:24:17;-14.22;77.45
65369;HTU21D;51970;53.484;49.488;2024-02-14T01:26:43;-14.21;77.34
65369;HTU21D;51970;53.484;49.488;2024-02-14T01:29:09;-14.21;77.12
65369;HTU21D;51970;53.484;49.488;2024-02-14T01:31:35;-14.29;77.21
65369;HTU21D;51970;53.484;49.488;2024-02-14T01:34:02;-14.40;77.02
65369;HTU21D;51970;53.484;49.488;2024-02-14T01:36:31;-14.43;77.18
65369;HTU21D;51970;53.484;49.488;2024-02-14T01:38:57;-14.43;77.06
65369;HTU21D;51970;53.484;49.488;2024-02-14T01:41:23;-14.49;76.85
65369;HTU21D;51970;53.484;49.488;2024-02-14T01:43:49;-14.34;77.03
65369;HTU21D;51970;53.484;49.488;2024-02-14T01:46:16;-14.63;76.79
65369;HTU21D;51970;53.484;49.488;2024-02-14T01:48:43;-14.67;76.89
65369;HTU21D;51970;53.484;49.488;2024-02-14T01:51:11;-14.73;77.02
65369;HTU21D;51970;53.484;49.488;2024-02-14T01:53:39;-14.47;76.81
65369;HTU21D;51970;53.484;49.488;2024-02-14T01:56:05;-14.74;76.94
65369;HTU21D;51970;53.484;49.488;2024-02-14T01:58:32;-14.71;76.57
65369;HTU21D;51970;53.484;49.488;2024-02-14T02:00:59;-14.71;76.42
65369;HTU21D;51970;53.484;49.488;2024-02-14T02:03:26;-14.86;76.76
65369;HTU21D;51970;53.484;49.488;2024-02-14T02:05:53;-14.62;76.55
65369;HTU21D;51970;53.484;49.488;2024-02-14T02:08:20;-14.75;75.26
65369;HTU21D;51970;53.484;49.488;2024-02-14T02:10:47;-14.76;73.96
65369;HTU21D;51970;53.484;49.488;2024-02-14T02:13:13;-15.06;73.51
65369;HTU21D;51970;53.484;49.488;2024-02-14T02:15:41;-15.25;73.19
65369;HTU21D;51970;53.484;49.488;2024-02-14T02:18:10;-15.35;73.46
65369;HTU21D;51970;53.484;49.488;2024-02-14T02:20:37;-15.49;73.48
65369;HTU21D;51970;53.484;49.488;2024-02-14T02:23:04;-15.61;73.69
65369;HTU21D;51970;53.484;49.488;2024-02-14T02:25:31;-15.65;74.19
65369;HTU21D;51970;53.484;49.488;2024-02-14T02:27:57;-15.69;75.07
65369;HTU21D;51970;53.484;49.488;2024-02-14T02:30:23;-15.53;75.34
65369;HTU21D;51970;53.484;49.488;2024-02-14T02:32:49;-15.45;75.45
65369;HTU21D;51970;53.484;49.488;2024-02-14T02:35:18;-15.45;75.67
65369;HTU21D;51970;53.484;49.488;2024-02-14T02:37:47;-15.33;75.71
65369;HTU21D;51970;53.484;49.488;2024-02-14T02:40:17;-15.35;75.28
65369;HTU21D;51970;53.484;49.488;2024-02-14T02:42:43;-15.35;75.34
65369;HTU21D;51970;53.484;49.488;2024-02-14T02:45:11;-15.44;75.53
65369;HTU21D;51970;53.484;49.488;2024-02-14T02:47:37;-15.45;75.81
65369;HTU21D;51970;53.484;49.488;2024-02-14T02:50:03;-15.46;75.86
65369;HTU21D;51970;53.484;49.488;2024-02-14T02:52:30;-15.43;75.90
65369;HTU21D;51970;53.484;49.488;2024-02-14T02:54:57;-15.44;75.94
65369;HTU21D;51970;53.484;49.488;2024-02-14T02:57:23;-15.38;75.82
65369;HTU21D;51970;53.484;49.488;2024-02-14T02:59:49;-15.33;75.79
65369;HTU21D;51970;53.484;49.488;2024-02-14T03:02:16;-15.47;75.83
65369;HTU21D;51970;53.484;49.488;2024-02-14T03:04:42;-15.37;76.36
65369;HTU21D;51970;53.484;49.488;2024-02-14T03:07:08;-15.43;76.05
65369;HTU21D;51970;53.484;49.488;2024-02-14T03:09:35;-15.44;76.34
65369;HTU21D;51970;53.484;49.488;2024-02-14T03:12:02;-15.34;76.45
65369;HTU21D;51970;53.484;49.488;2024-02-14T03:14:32;-15.40;76.24
65369;HTU21D;51970;53.484;49.488;2024-02-14T03:17:05;-15.49;76.15
65369;HTU21D;51970;53.484;49.488;2024-02-14T03:19:31;-15.47;76.05
65369;HTU21D;51970;53.484;49.488;2024-02-14T03:21:59;-15.52;75.78
65369;HTU21D;51970;53.484;49.488;2024-02-14T03:24:25;-15.64;76.08
65369;HTU21D;51970;53.484;49.488;2024-02-14T03:26:52;-15.67;76.13
65369;HTU21D;51970;53.484;49.488;2024-02-14T03:29:19;-15.72;76.29
65369;HTU21D;51970;53.484;49.488;2024-02-14T03:31:46;-15.77;76.35
65369;HTU21D;51970;53.484;49.488;2024-02-14T03:34:13;-15.69;76.31
65369;HTU21D;51970;53.484;49.488;2024-02-14T03:36:39;-15.96;76.37
65369;HTU21D;51970;53.484;49.488;2024-02-14T03:39:06;-15.92;76.29
65369;HTU21D;51970;53.484;49.488;2024-02-14T03:41:32;-15.92;76.17
65369;HTU21D;51970;53.484;49.488;2024-02-14T03:43:58;-15.99;75.92
65369;HTU21D;51970;53.484;49.488;2024-02-14T03:46:29;-15.99;75.80
65369;HTU21D;51970;53.484;49.488;2024-02-14T03:48:56;-16.03;75.61
65369;HTU21D;51970;53.484;49.488;2024-02-14T03:51:25;-16.10;75.79
65369;HTU21D;51970;53.484;49.488;2024-02-14T03:53:51;-16.15;75.85
65369;HTU21D;51970;53.484;49.488;2024-02-14T03:56:17;-16.12;75.83
65369;HTU21D;51970;53.484;49.488;2024-02-14T03:58:44;-16.07;75.58
65369;HTU21D;51970;53.484;49.488;2024-02-14T04:01:12;-16.06;75.34
65369;HTU21D;51970;53.484;49.488;2024-02-14T04:03:42;-16.11;75.38
65369;HTU21D;51970;53.484;49.488;2024-02-14T04:06:08;-16.15;75.45
65369;HTU21D;51970;53.484;49.488;2024-02-14T04:08:34;-16.18;75.68
65369;HTU21D;51970;53.484;49.488;2024-02-14T04:11:00;-16.21;75.62
65369;HTU21D;51970;53.484;49.488;2024-02-14T04:13:27;-16.18;75.60
65369;HTU21D;51970;53.484;49.488;2024-02-14T04:15:53;-16.25;75.30
65369;HTU21D;51970;53.484;49.488;2024-02-14T04:18:19;-16.22;75.21
65369;HTU21D;51970;53.484;49.488;2024-02-14T04:20:45;-16.24;75.31
65369;HTU21D;51970;53.484;49.488;2024-02-14T04:23:11;-16.20;75.17
65369;HTU21D;51970;53.484;49.488;2024-02-14T04:25:37;-16.30;75.45
65369;HTU21D;51970;53.484;49.488;2024-02-14T04:28:03;-16.28;75.14
65369;HTU21D;51970;53.484;49.488;2024-02-14T04:30:29;-16.30;74.97
65369;HTU21D;51970;53.484;49.488;2024-02-14T04:32:56;-16.34;75.15
65369;HTU21D;51970;53.484;49.488;2024-02-14T04:35:22;-16.39;75.09
65369;HTU21D;51970;53.484;49.488;2024-02-14T04:37:48;-16.29;75.02
65369;HTU21D;51970;53.484;49.488;2024-02-14T04:40:15;-16.29;74.28
65369;HTU21D;51970;53.484;49.488;2024-02-14T04:42:41;-16.34;74.31
65369;HTU21D;51970;53.484;49.488;2024-02-14T04:45:08;-16.34;74.12
65369;HTU21D;51970;53.484;49.488;2024-02-14T04:47:35;-16.18;73.99
65369;HTU21D;51970;53.484;49.488;2024-02-14T04:50:01;-16.13;73.85
65369;HTU21D;51970;53.484;49.488;2024-02-14T04:52:30;-16.13;73.43
65369;HTU21D;51970;53.484;49.488;2024-02-14T04:54:56;-16.07;73.57
65369;HTU21D;51970;53.484;49.488;2024-02-14T04:57:22;-15.30;73.88
65369;HTU21D;51970;53.484;49.488;2024-02-14T04:59:49;-15.80;73.32
65369;HTU21D;51970;53.484;49.488;2024-02-14T05:02:15;-15.81;73.06
65369;HTU21D;51970;53.484;49.488;2024-02-14T05:04:41;-15.73;73.18
65369;HTU21D;51970;53.484;49.488;2024-02-14T05:07:07;-15.52;72.70
65369;HTU21D;51970;53.484;49.488;2024-02-14T05:09:34;-15.59;72.66
65369;HTU21D;51970;53.484;49.488;2024-02-14T05:12:00;-15.62;72.30
65369;HTU21D;51970;53.484;49.488;2024-02-14T05:14:26;-15.68;72.35
65369;HTU21D;51970;53.484;49.488;2024-02-14T05:16:57;-15.68;72.50
65369;HTU21D;51970;53.484;49.488;2024-02-14T05:19:23;-15.72;72.64
65369;HTU21D;51970;53.484;49.488;2024-02-14T05:21:49;-15.67;72.71
65369;HTU21D;51970;53.484;49.488;2024-02-14T05:24:15;-15.41;72.49
65369;HTU21D;51970;53.484;49.488;2024-02-14T05:26:41;-15.32;71.19
65369;HTU21D;51970;53.484;49.488;2024-02-14T05:29:07;-15.47;71.19
65369;HTU21D;51970;53.484;49.488;2024-02-14T05:31:43;-15.35;71.23
65369;HTU21D;51970;53.484;49.488;2024-02-14T05:34:10;-15.31;70.87
65369;HTU21D;51970;53.484;49.488;2024-02-14T05:36:36;-15.36;70.98
65369;HTU21D;51970;53.484;49.488;2024-02-14T05:39:04;-15.09;70.97
65369;HTU21D;51970;53.484;49.488;2024-02-14T05:41:31;-14.80;70.56
65369;HTU21D;51970;53.484;49.488;2024-02-14T05:43:59;-14.87;70.29
65369;HTU21D;51970;53.484;49.488;2024-02-14T05:46:25;-14.75;69.70
65369;HTU21D;51970;53.484;49.488;2024-02-14T05:48:51;-14.39;69.35
65369;HTU21D;51970;53.484;49.488;2024-02-14T05:51:21;-14.44;68.85
65369;HTU21D;51970;53.484;49.488;2024-02-14T05:53:47;-14.47;68.49
65369;HTU21D;51970;53.484;49.488;2024-02-14T05:56:13;-14.61;68.93
65369;HTU21D;51970;53.484;49.488;2024-02-14T05:58:39;-14.57;68.81
65369;HTU21D;51970;53.484;49.488;2024-02-14T06:01:05;-14.52;68.67
65369;HTU21D;51970;53.484;49.488;2024-02-14T06:03:32;-14.50;68.68
65369;HTU21D;51970;53.484;49.488;2024-02-14T06:05:58;-14.46;68.91
65369;HTU21D;51970;53.484;49.488;2024-02-14T06:08:24;-14.40;68.59
65369;HTU21D;51970;53.484;49.488;2024-02-14T06:10:52;-14.36;68.06
65369;HTU21D;51970;53.484;49.488;2024-02-14T06:13:19;-14.25;68.08
65369;HTU21D;51970;53.484;49.488;2024-02-14T06:15:45;-14.25;68.33
65369;HTU21D;51970;53.484;49.488;2024-02-14T06:18:11;-14.15;67.60
65369;HTU21D;51970;53.484;49.488;2024-02-14T06:20:37;-14.14;67.43
65369;HTU21D;51970;53.484;49.488;2024-02-14T06:23:04;-14.04;67.25
65369;HTU21D;51970;53.484;49.488;2024-02-14T06:25:33;-13.99;66.94
65369;HTU21D;51970;53.484;49.488;2024-02-14T06:27:59;-14.02;66.82
65369;HTU21D;51970;53.484;49.488;2024-02-14T06:30:25;-13.97;66.72
65369;HTU21D;51970;53.484;49.488;2024-02-14T06:32:52;-13.77;67.04
65369;HTU21D;51970;53.484;49.488;2024-02-14T06:35:18;-13.62;66.91
65369;HTU21D;51970;53.484;49.488;2024-02-14T06:37:45;-13.49;66.87
65369;HTU21D;51970;53.484;49.488;2024-02-14T06:40:11;-13.51;66.56
65369;HTU21D;51970;53.484;49.488;2024-02-14T06:42:38;-13.55;66.22
65369;HTU21D;51970;53.484;49.488;2024-02-14T06:45:05;-13.69;67.18
65369;HTU21D;51970;53.484;49.488;2024-02-14T06:47:32;-13.65;67.43
65369;HTU21D;51970;53.484;49.488;2024-02-14T06:49:58;-13.61;67.12
65369;HTU21D;51970;53.484;49.488;2024-02-14T06:52:24;-13.53;67.29
65369;HTU21D;51970;53.484;49.488;2024-02-14T06:54:50;-13.70;66.78
65369;HTU21D;51970;53.484;49.488;2024-02-14T06:57:16;-13.74;67.07
65369;HTU21D;51970;53.484;49.488;2024-02-14T06:59:43;-13.74;67.36
65369;HTU21D;51970;53.484;49.488;2024-02-14T07:02:10;-13.82;67.67
65369;HTU21D;51970;53.484;49.488;2024-02-14T07:04:36;-13.76;67.91
65369;HTU21D;51970;53.484;49.488;2024-02-14T07:07:03;-13.61;67.74
65369;HTU21D;51970;53.484;49.488;2024-02-14T07:09:29;-13.59;67.40
65369;HTU21D;51970;53.484;49.488;2024-02-14T07:11:55;-13.69;67.67
65369;HTU21D;51970;53.484;49.488;2024-02-14T07:14:24;-13.70;68.02
65369;HTU21D;51970;53.484;49.488;2024-02-14T07:16:50;-13.76;67.82
65369;HTU21D;51970;53.484;49.488;2024-02-14T07:19:16;-13.49;68.30
65369;HTU21D;51970;53.484;49.488;2024-02-14T07:21:42;-13.44;67.43
65369;HTU21D;51970;53.484;49.488;2024-02-14T07:24:09;-13.43;67.30
65369;HTU21D;51970;53.484;49.488;2024-02-14T07:26:35;-13.25;67.00
65369;HTU21D;51970;53.484;49.488;2024-02-14T07:29:02;-13.28;66.37
65369;HTU21D;51970;53.484;49.488;2024-02-14T07:31:29;-13.31;66.60
65369;HTU21D;51970;53.484;49.488;2024-02-14T07:34:00;-13.25;66.82
65369;HTU21D;51970;53.484;49.488;2024-02-14T07:36:29;-12.96;66.65
65369;HTU21D;51970;53.484;49.488;2024-02-14T07:38:56;-12.86;66.27
65369;HTU21D;51970;53.484;49.488;2024-02-14T07:41:22;-13.13;66.48
65369;HTU21D;51970;53.484;49.488;2024-02-14T07:43:48;-13.01;66.85
65369;HTU21D;51970;53.484;49.488;2024-02-14T07:46:21;-12.89;66.27
65369;HTU21D;51970;53.484;49.488;2024-02-14T07:48:48;-12.95;65.79
65369;HTU21D;51970;53.484;49.488;2024-02-14T07:51:14;-12.96;66.28
65369;HTU21D;51970;53.484;49.488;2024-02-14T07:53:40;-13.04;66.76
65369;HTU21D;51970;53.484;49.488;2024-02-14T07:56:07;-12.89;66.47
65369;HTU21D;51970;53.484;49.488;2024-02-14T07:58:33;-12.86;66.13
65369;HTU21D;51970;53.484;49.488;2024-02-14T08:00:59;-12.88;65.94
65369;HTU21D;51970;53.484;49.488;2024-02-14T08:03:26;-12.92;66.12
65369;HTU21D;51970;53.484;49.488;2024-02-14T08:05:52;-13.04;66.35
65369;HTU21D;51970;53.484;49.488;2024-02-14T08:08:18;-13.01;66.87
65369;HTU21D;51970;53.484;49.488;2024-02-14T08:10:44;-12.97;66.81
65369;HTU21D;51970;53.484;49.488;2024-02-14T08:13:10;-12.96;66.84
65369;HTU21D;51970;53.484;49.488;2024-02-14T08:15:41;-12.95;67.10
65369;HTU21D;51970;53.484;49.488;2024-02-14T08:18:07;-12.73;66.84
65369;HTU21D;51970;53.484;49.488;2024-02-14T08:20:33;-12.86;66.81
65369;HTU21D;51970;53.484;49.488;2024-02-14T08:22:59;-12.82;66.83
65369;HTU21D;51970;53.484;49.488;2024-02-14T08:25:25;-12.78;67.00
65369;HTU21D;51970;53.484;49.488;2024-02-14T08:27:52;-12.94;67.20
65369;HTU21D;51970;53.484;49.488;2024-02-14T08:30:18;-12.91;67.01
65369;HTU21D;51970;53.484;49.488;2024-02-14T08:32:45;-12.99;67.21
65369;HTU21D;51970;53.484;49.488;2024-02-14T08:35:11;-13.07;67.60
65369;HTU21D;51970;53.484;49.488;2024-02-14T08:37:39;-12.69;67.63
65369;HTU21D;51970;53.484;49.488;2024-02-14T08:40:07;-12.62;67.23
65369;HTU21D;51970;53.484;49.488;2024-02-14T08:42:34;-12.57;66.78
65369;HTU21D;51970;53.484;49.488;2024-02-14T08:45:01;-12.62;66.80
65369;HTU21D;51970;53.484;49.488;2024-02-14T08:47:27;-12.70;67.01
65369;HTU21D;51970;53.484;49.488;2024-02-14T08:49:53;-12.67;67.55
65369;HTU21D;51970;53.484;49.488;2024-02-14T08:52:19;-12.38;67.29
65369;HTU21D;51970;53.484;49.488;2024-02-14T08:54:46;-12.27;66.40
65369;HTU21D;51970;53.484;49.488;2024-02-14T08:57:13;-12.15;66.72
65369;HTU21D;51970;53.484;49.488;2024-02-14T08:59:39;-12.17;65.91
65369;HTU21D;51970;53.484;49.488;2024-02-14T09:02:06;-12.29;66.59
65369;HTU21D;51970;53.484;49.488;2024-02-14T09:04:32;-12.09;66.56
65369;HTU21D;51970;53.484;49.488;2024-02-14T09:06:58;-12.06;66.49
65369;HTU21D;51970;53.484;49.488;2024-02-14T09:09:24;-12.00;65.96
65369;HTU21D;51970;53.484;49.488;2024-02-14T09:11:50;-12.01;66.35
65369;HTU21D;51970;53.484;49.488;2024-02-14T09:14:16;-12.05;66.37
65369;HTU21D;51970;53.484;49.488;2024-02-14T09:16:42;-11.89;66.24
65369;HTU21D;51970;53.484;49.488;2024-02-14T09:19:11;-12.01;65.94
65369;HTU21D;51970;53.484;49.488;2024-02-14T09:21:38;-12.14;66.42
65369;HTU21D;51970;53.484;49.488;2024-02-14T09:24:04;-12.03;66.91
65369;HTU21D;51970;53.484;49.488;2024-02-14T09:26:30;-11.83;66.67
65369;HTU21D;51970;53.484;49.488;2024-02-14T09:28:57;-11.68;65.62
65369;HTU21D;51970;53.484;49.488;2024-02-14T09:31:23;-11.65;65.63
65369;HTU21D;51970;53.484;49.488;2024-02-14T09:33:49;-11.47;65.18
65369;HTU21D;51970;53.484;49.488;2024-02-14T09:36:15;-11.53;65.25
65369;HTU21D;51970;53.484;49.488;2024-02-14T09:38:44;-11.62;65.84
65369;HTU21D;51970;53.484;49.488;2024-02-14T09:41:28;-11.47;65.73
65369;HTU21D;51970;53.484;49.488;2024-02-14T09:43:56;-11.63;65.82
65369;HTU21D;51970;53.484;49.488;2024-02-14T09:46:24;-11.65;65.78
65369;HTU21D;51970;53.484;49.488;2024-02-14T09:48:52;-11.81;66.07
65369;HTU21D;51970;53.484;49.488;2024-02-14T09:51:19;-11.90;65.87
65369;HTU21D;51970;53.484;49.488;2024-02-14T09:53:45;-11.92;66.19
65369;HTU21D;51970;53.484;49.488;2024-02-14T09:56:12;-11.91;65.86
65369;HTU21D;51970;53.484;49.488;2024-02-14T09:58:40;-11.92;66.21
65369;HTU21D;51970;53.484;49.488;2024-02-14T10:01:06;-11.79;66.02
65369;HTU21D;51970;53.484;49.488;2024-02-14T10:03:33;-11.64;65.56
65369;HTU21D;51970;53.484;49.488;2024-02-14T10:06:01;-11.69;65.51
65369;HTU21D;51970;53.484;49.488;2024-02-14T10:08:27;-11.76;65.71
65369;HTU21D;51970;53.484;49.488;2024-02-14T10:10:56;-11.90;65.62
65369;HTU21D;51970;53.484;49.488;2024-02-14T10:13:27;-12.06;66.12
65369;HTU21D;51970;53.484;49.488;2024-02-14T10:15:53;-11.73;66.46
65369;HTU21D;51970;53.484;49.488;2024-02-14T10:18:20;-11.82;65.78
65369;HTU21D;51970;53.484;49.488;2024-02-14T10:20:58;-11.81;65.43
65369;HTU21D;51970;53.484;49.488;2024-02-14T10:23:24;-11.86;65.67
65369;HTU21D;51970;53.484;49.488;2024-02-14T10:25:53;-11.70;65.99
65369;HTU21D;51970;53.484;49.488;2024-02-14T10:28:22;-11.68;65.85
65369;HTU21D;51970;53.484;49.488;2024-02-14T10:30:49;-11.73;65.44
65369;HTU21D;51970;53.484;49.488;2024-02-14T10:33:18;-11.62;65.40
65369;HTU21D;51970;53.484;49.488;2024-02-14T10:35:48;-11.68;65.82
65369;HTU21D;51970;53.484;49.488;2024-02-14T10:38:16;-11.49;65.15
65369;HTU21D;51970;53.484;49.488;2024-02-14T10:40:46;-11.60;65.11
65369;HTU21D;51970;53.484;49.488;2024-02-14T10:43:13;-11.58;64.94
65369;HTU21D;51970;53.484;49.488;2024-02-14T10:45:39;-11.35;65.60
65369;HTU21D;51970;53.484;49.488;2024-02-14T10:48:06;-11.41;65.76
65369;HTU21D;51970;53.484;49.488;2024-02-14T10:50:36;-11.48;64.74
65369;HTU21D;51970;53.484;49.488;2024-02-14T10:53:12;-11.69;64.98
65369;HTU21D;51970;53.484;49.488;2024-02-14T10:55:41;-11.58;65.15
65369;HTU21D;51970;53.484;49.488;2024-02-14T10:58:10;-11.47;64.65
65369;HTU21D;51970;53.484;49.488;2024-02-14T11:00:37;-11.63;64.81
65369;HTU21D;51970;53.484;49.488;2024-02-14T11:03:04;-11.54;65.09
65369;HTU21D;51970;53.484;49.488;2024-02-14T11:05:31;-11.48;65.01
65369;HTU21D;51970;53.484;49.488;2024-02-14T11:08:07;-11.39;64.39
65369;HTU21D;51970;53.484;49.488;2024-02-14T11:10:37;-11.45;64.05
65369;HTU21D;51970;53.484;49.488;2024-02-14T11:13:04;-11.51;64.66
65369;HTU21D;51970;53.484;49.488;2024-02-14T11:15:35;-11.53;64.85
65369;HTU21D;51970;53.484;49.488;2024-02-14T11:18:05;-11.50;64.27
65369;HTU21D;51970;53.484;49.488;2024-02-14T11:20:35;-11.65;64.59
65369;HTU21D;51970;53.484;49.488;2024-02-14T11:23:06;-11.71;64.78
65369;HTU21D;51970;53.484;49.488;2024-02-14T11:25:33;-11.79;65.33
65369;HTU21D;51970;53.484;49.488;2024-02-14T11:28:12;-11.54;65.26
65369;HTU21D;51970;53.484;49.488;2024-02-14T11:30:39;-11.37;65.61
65369;HTU21D;51970;53.484;49.488;2024-02-14T11:33:13;-11.75;65.77
65369;HTU21D;51970;53.484;49.488;2024-02-14T11:35:40;-11.49;64.88
65369;HTU21D;51970;53.484;49.488;2024-02-14T11:38:08;-11.82;65.03
65369;HTU21D;51970;53.484;49.488;2024-02-14T11:40:38;-11.71;65.24
65369;HTU21D;51970;53.484;49.488;2024-02-14T11:43:15;-11.58;65.51
65369;HTU21D;51970;53.484;49.488;2024-02-14T11:45:43;-11.62;64.97
65369;HTU21D;51970;53.484;49.488;2024-02-14T11:48:14;-11.58;64.81
65369;HTU21D;51970;53.484;49.488;2024-02-14T11:50:41;-11.67;64.52
65369;HTU21D;51970;53.484;49.488;2024-02-14T11:53:13;-11.82;65.08
65369;HTU21D;51970;53.484;49.488;2024-02-14T11:55:42;-11.83;65.05
65369;HTU21D;51970;53.484;49.488;2024-02-14T12:00:40;-11.86;64.94
65369;HTU21D;51970;53.484;49.488;2024-02-14T12:03:09;-11.96;65.17
65369;HTU21D;51970;53.484;49.488;2024-02-14T12:05:37;-12.06;65.39
65369;HTU21D;51970;53.484;49.488;2024-02-14T12:08:06;-12.13;65.53
65369;HTU21D;51970;53.484;49.488;2024-02-14T12:10:34;-11.89;65.94
65369;HTU21D;51970;53.484;49.488;2024-02-14T12:13:08;-12.11;66.16
65369;HTU21D;51970;53.484;49.488;2024-02-14T12:15:41;-12.28;65.80
65369;HTU21D;51970;53.484;49.488;2024-02-14T12:18:08;-12.06;66.21
65369;HTU21D;51970;53.484;49.488;2024-02-14T12:20:38;-12.45;66.04
65369;HTU21D;51970;53.484;49.488;2024-02-14T12:23:04;-12.38;66.44
65369;HTU21D;51970;53.484;49.488;2024-02-14T12:25:34;-12.60;66.56
65369;HTU21D;51970;53.484;49.488;2024-02-14T12:28:01;-12.57;66.75
65369;HTU21D;51970;53.484;49.488;2024-02-14T12:30:46;-12.62;66.61
65369;HTU21D;51970;53.484;49.488;2024-02-14T12:33:14;-12.83;66.92
65369;HTU21D;51970;53.484;49.488;2024-02-14T12:35:42;-12.81;67.34
65369;HTU21D;51970;53.484;49.488;2024-02-14T12:38:10;-12.87;67.05
65369;HTU21D;51970;53.484;49.488;2024-02-14T12:40:36;-12.84;67.32
65369;HTU21D;51970;53.484;49.488;2024-02-14T12:43:02;-12.73;67.43
65369;HTU21D;51970;53.484;49.488;2024-02-14T12:45:29;-13.00;67.38
65369;HTU21D;51970;53.484;49.488;2024-02-14T12:47:55;-13.00;67.53
65369;HTU21D;51970;53.484;49.488;2024-02-14T12:50:21;-13.11;67.46
65369;HTU21D;51970;53.484;49.488;2024-02-14T12:52:47;-13.10;67.87
65369;HTU21D;51970;53.484;49.488;2024-02-14T12:55:14;-13.08;67.83
65369;HTU21D;51970;53.484;49.488;2024-02-14T12:57:41;-13.26;68.01
65369;HTU21D;51970;53.484;49.488;2024-02-14T13:00:07;-13.37;68.07
65369;HTU21D;51970;53.484;49.488;2024-02-14T13:02:35;-13.39;68.23
65369;HTU21D;51970;53.484;49.488;2024-02-14T13:05:01;-13.47;68.55
65369;HTU21D;51970;53.484;49.488;2024-02-14T13:07:28;-13.39;68.61
65369;HTU21D;51970;53.484;49.488;2024-02-14T13:09:54;-13.33;68.24
65369;HTU21D;51970;53.484;49.488;2024-02-14T13:12:20;-13.44;68.46
65369;HTU21D;51970;53.484;49.488;2024-02-14T13:14:47;-13.47;68.36
65369;HTU21D;51970;53.484;49.488;2024-02-14T13:17:13;-13.48;68.58
65369;HTU21D;51970;53.484;49.488;2024-02-14T13:19:39;-13.52;68.36
65369;HTU21D;51970;53.484;49.488;2024-02-14T13:22:09;-13.59;68.45
65369;HTU21D;51970;53.484;49.488;2024-02-14T13:24:35;-13.58;68.63
65369;HTU21D;51970;53.484;49.488;2024-02-14T13:27:01;-13.61;68.81
65369;HTU21D;51970;53.484;49.488;2024-02-14T13:29:27;-13.53;68.77
65369;HTU21D;51970;53.484;49.488;2024-02-14T13:31:54;-13.62;68.58
65369;HTU21D;51970;53.484;49.488;2024-02-14T13:34:20;-13.61;68.46
65369;HTU21D;51970;53.484;49.488;2024-02-14T13:36:46;-13.65;68.17
65369;HTU21D;51970;53.484;49.488;2024-02-14T13:39:13;-13.82;68.39
65369;HTU21D;51970;53.484;49.488;2024-02-14T13:41:40;-13.78;68.84
65369;HTU21D;51970;53.484;49.488;2024-02-14T13:44:06;-14.01;68.99
65369;HTU21D;51970;53.484;49.488;2024-02-14T13:46:34;-14.08;69.20
65369;HTU21D;51970;53.484;49.488;2024-02-14T13:49:00;-14.18;69.39
65369;HTU21D;51970;53.484;49.488;2024-02-14T13:51:26;-14.14;69.45
65369;HTU21D;51970;53.484;49.488;2024-02-14T13:53:53;-14.08;69.30
65369;HTU21D;51970;53.484;49.488;2024-02-14T13:56:19;-14.15;69.17
65369;HTU21D;51970;53.484;49.488;2024-02-14T13:58:48;-14.22;69.20
65369;HTU21D;51970;53.484;49.488;2024-02-14T14:01:18;-14.21;69.37
65369;HTU21D;51970;53.484;49.488;2024-02-14T14:03:45;-14.23;69.38
65369;HTU21D;51970;53.484;49.488;2024-02-14T14:06:11;-14.16;69.33
65369;HTU21D;51970;53.484;49.488;2024-02-14T14:08:37;-14.25;69.22
65369;HTU21D;51970;53.484;49.488;2024-02-14T14:11:03;-14.31;69.43
65369;HTU21D;51970;53.484;49.488;2024-02-14T14:13:29;-14.33;69.63
65369;HTU21D;51970;53.484;49.488;2024-02-14T14:15:59;-14.33;69.68
65369;HTU21D;51970;53.484;49.488;2024-02-14T14:18:25;-14.23;69.76
65369;HTU21D;51970;53.484;49.488;2024-02-14T14:20:51;-14.29;69.58
65369;HTU21D;51970;53.484;49.488;2024-02-14T14:23:20;-14.30;69.52
65369;HTU21D;51970;53.484;49.488;2024-02-14T14:25:47;-14.32;69.58
65369;HTU21D;51970;53.484;49.488;2024-02-14T14:28:13;-14.40;69.60
65369;HTU21D;51970;53.484;49.488;2024-02-14T14:30:40;-14.37;69.80
65369;HTU21D;51970;53.484;49.488;2024-02-14T14:33:07;-14.33;69.70
65369;HTU21D;51970;53.484;49.488;2024-02-14T14:35:37;-14.48;69.81
65369;HTU21D;51970;53.484;49.488;2024-02-14T14:38:03;-14.58;69.97
65369;HTU21D;51970;53.484;49.488;2024-02-14T14:40:29;-14.58;70.13
65369;HTU21D;51970;53.484;49.488;2024-02-14T14:42:56;-14.39;70.11
65369;HTU21D;51970;53.484;49.488;2024-02-14T14:45:22;-14.43;69.77
65369;HTU21D;51970;53.484;49.488;2024-02-14T14:47:48;-14.45;69.81
65369;HTU21D;51970;53.484;49.488;2024-02-14T14:50:15;-14.40;69.56